CheckWX is a tool to help pilots better visualize weather data.  It is not intended as a substitute for an official pre-flight weather briefing.

21:54:09 UTC

LTAW TAF
Tokat Airport
Tokat, Turkey
TAF LTAW 301340Z 3015/3024 27012KT 9999 SCT040 BKN100

Mar-30@
15:00 UTC

Mar-30 @ 15:00 UTC

Mar-31@
00:00 UTC

Mar-31 @ 00:00 UTC

TAF LTAW 301340Z 3015/3024 27012KT 9999 SCT040 BKN100
Wind
  • 270° at 12 KTS
Cloud Levels
  • Scattered at 4,000' AGL
  • Broken at 10,000' AGL